cloudbaseCUmx.php :- Version MX_2.2.4 - 22-April-2022
    copyright © Silver Acorn Weather 
    PHP Version 8.1.14


TIME and DATE
    Time Zone :- Europe/London (GMT+0 hours)
    Daylight saving ? :- No
    Date/Time :- Thu, 02 Feb 2023 22:10:08 (Night)
    Last updated :- 22:10 Thursday, February 02, 2023

INPUT ITEM: RAW DATA -> DERIVED
    Current temp :- 10.3 °C
    Dewpoint :- 8.0 °C
    Rain Fall :- 0.0 mm
    Barometer :- 1021 hPa
    Humidity :- 86 %
    Wind Speed :- 6 mph
    Wind Dir :- 211 degrees
    Cloud Altitude :- 522.72727272727 ft (AGL)
    Latitude :- 54.633889 N = Northern Hemisphere
    Season :- Winter
    Moon Age :- 12 days
    Moon Percent :- 93
    Day or Night ? :- Night
    Tag file time Interval :- 5 Minutes

CUMULUS CONDITIONS
    Cumulus conditions not in use
    Zambretti # :- 2

METAR CONDITONS - Metar Times UTC, Update Station times based on timezone setting
    $pathToMetFile :- ./cache/
    Metar - Rawdata :- 2023/02/02 21:50 EGAC 022150Z AUTO 21011KT 9999 OVC011 10/08 Q1021
    Metar - Trimmed :- 022150Z AUTO 21011KT 9999 OVC011 10/08 Q1021
    Metar - Decoded :- Not Raining; Overcast
    Now :- 1675375807 seconds
    Metar report timestamp :- 1675374600 seconds
    Age of File :- 20.12 minutes
    When to update Metar :- 1675369740 seconds   (Metar report timestamp plus 39 mins refresh time)
    Next Download in :- -101.12 Minutes (if  '-' then refresh page, if still '-' then Metar update overdue!)
    Metar file :- New File downloaded
     AUTO Metar station updates usually every 30 minutes. MANUAL Metar station updates usually Hourly.

OUTPUT DATA

    Background image file name :- ./images/cb/cb-bg-00winn.png
    $showAGL / ASL :- true
    Cloud Temp :- 7 °C
    $useWXrain :- true
    $tag interval :- 5
    Last rained :- 1.35 days ago
    Last rained Y-M-D h:m :- 2023-02-01 13:40
    No rain in last 5 minutes :- Not raining
    Moon Image (cbmoon.png) created @ :- 22:10:08

SETTINGS
    $tagfile :- ./cldbaseCUtags.php
    $time last update :- 22:10 on 02 February 2023
    $ICAO :- EGAC
    $pathToMetFile :- ./cache/
    $tz :- Europe/London
    $pathToImages :- ./images/cb/  ( background, cloud, windsock and scale images )
    $srcmoonimgdir :- ./images/moon/  ( source of moon images )
    $dstmoonimgdir :- ./images/moon/  ( cbmoon.png )
    $switchSeasons :- true
    $showCldSource :- true
    $showCloudTemp :- true
    $showCaption :- true
    $showMoon :- true
    $showScale :- true
    $showWinsock :- false
    $showWindDir :- false
    $showWindSpd :- false
    $showTemp :- false
    $showHumidity :- false
    $showBaro :- false
    $alwaysShowCloud :- false
    $useCUHeight :- false
    $getMetar :- true
    $metarRefresh :- true
    $useMetarAtNight :- true
    $onlyUseMetar :- true
    $reportMistAt :- 25 ft
    $reportFogAt :- 10 ft
    $stationAltitude :- 49 m AGL